Time;durP1;ratioP1;P1;durP2;ratioP2;P2;SDS_P1;SDS_P2;PMS_P1;PMS_P2;Temp;Humidity;BMP_temperature;BMP_pressure;BME280_temperature;BME280_humidity;BME280_pressure;Samples;Min_cycle;Max_cycle;Signal;HPM_P1;HPM_P2
2022/12/07 00:02:26;;;;;;;5.10;4.60;;;;;;;;;;5001650;28;20379;-31
2022/12/07 00:05:04;;;;;;;4.53;4.00;;;;;;;;;;5008257;28;20566;-33
2022/12/07 00:07:40;;;;;;;6.33;4.33;;;;;;;;;;5015342;28;20203;-35
2022/12/07 00:10:16;;;;;;;5.90;4.37;;;;;;;;;;5001615;28;20211;-36
2022/12/07 00:12:58;;;;;;;5.10;4.10;;;;;;;;;;5006776;28;20210;-30
2022/12/07 00:15:36;;;;;;;5.57;4.07;;;;;;;;;;5011084;28;20282;-34
2022/12/07 00:18:11;;;;;;;7.10;4.43;;;;;;;;;;5013675;28;20231;-32
2022/12/07 00:20:54;;;;;;;4.97;4.17;;;;;;;;;;5003752;28;20227;-34
2022/12/07 00:23:44;;;;;;;4.07;3.67;;;;;;;;;;4995515;28;20258;-37
2022/12/07 00:26:21;;;;;;;4.43;3.70;;;;;;;;;;5003171;28;20200;-31
2022/12/07 00:29:01;;;;;;;5.27;4.03;;;;;;;;;;5007020;28;20280;-34
2022/12/07 00:34:28;;;;;;;4.63;3.87;;;;;;;;;;5007000;28;20210;-33
2022/12/07 00:37:14;;;;;;;4.20;3.50;;;;;;;;;;4994867;28;20212;-30
2022/12/07 00:39:50;;;;;;;5.70;4.20;;;;;;;;;;5004423;28;20315;-31
2022/12/07 00:45:24;;;;;;;5.63;4.47;;;;;;;;;;4995369;28;20204;-33
2022/12/07 00:47:57;;;;;;;5.00;4.37;;;;;;;;;;5007343;28;20254;-34
2022/12/07 00:50:38;;;;;;;5.27;4.07;;;;;;;;;;5005948;28;20322;-36
2022/12/07 00:53:21;;;;;;;4.93;3.93;;;;;;;;;;5008453;28;20212;-35
2022/12/07 00:55:55;;;;;;;4.47;3.87;;;;;;;;;;4998003;28;20203;-34
2022/12/07 01:01:28;;;;;;;7.10;4.70;;;;;;;;;;5001407;28;20242;-33
2022/12/07 01:04:08;;;;;;;9.07;5.17;;;;;;;;;;5011846;28;20213;-36
2022/12/07 01:06:57;;;;;;;4.53;4.00;;;;;;;;;;4995701;28;20199;-34
2022/12/07 01:09:34;;;;;;;7.47;3.93;;;;;;;;;;5009472;28;20214;-28
2022/12/07 01:12:21;;;;;;;5.40;4.07;;;;;;;;;;5007207;28;20232;-29
2022/12/07 01:14:59;;;;;;;5.80;4.10;;;;;;;;;;5012549;28;20229;-38
2022/12/07 01:20:19;;;;;;;5.50;4.37;;;;;;;;;;5012234;28;20231;-28
2022/12/07 01:23:09;;;;;;;6.20;4.60;;;;;;;;;;5011825;28;20207;-25
2022/12/07 01:25:49;;;;;;;6.73;4.63;;;;;;;;;;4995771;28;20215;-25
2022/12/07 01:28:29;;;;;;;5.23;4.43;;;;;;;;;;5013208;28;20199;-27
2022/12/07 01:31:15;;;;;;;6.10;4.70;;;;;;;;;;5010069;28;20235;-25
2022/12/07 01:33:55;;;;;;;6.43;4.83;;;;;;;;;;5000537;28;20309;-26
2022/12/07 01:36:35;;;;;;;6.17;4.87;;;;;;;;;;5013280;28;20203;-26
2022/12/07 01:39:21;;;;;;;7.67;5.27;;;;;;;;;;5013226;28;20242;-25
2022/12/07 01:42:01;;;;;;;6.80;4.70;;;;;;;;;;5008675;28;20227;-26
2022/12/07 01:44:40;;;;;;;6.87;4.80;;;;;;;;;;5013442;28;20203;-25
2022/12/07 01:47:24;;;;;;;9.33;5.00;;;;;;;;;;5008391;28;20578;-25
2022/12/07 01:50:00;;;;;;;5.87;4.37;;;;;;;;;;5004701;28;20458;-26
2022/12/07 01:52:46;;;;;;;7.40;4.60;;;;;;;;;;5013426;28;20237;-25
2022/12/07 01:55:33;;;;;;;8.37;5.40;;;;;;;;;;5004165;28;20273;-24
2022/12/07 01:58:10;;;;;;;5.43;4.23;;;;;;;;;;5007371;28;20227;-25
2022/12/07 02:01:10;;;;;;;6.67;4.67;;;;;;;;;;5009222;28;20231;-25
2022/12/07 02:03:57;;;;;;;5.77;4.60;;;;;;;;;;5019210;28;20210;-25
2022/12/07 02:14:55;;;;;;;7.40;5.27;;;;;;;;;;5025943;28;20215;-25
2022/12/07 02:17:45;;;;;;;6.73;4.73;;;;;;;;;;5022243;28;20226;-25
2022/12/07 02:20:37;;;;;;;7.57;5.27;;;;;;;;;;5021707;28;20220;-27
2022/12/07 02:23:48;;;;;;;6.93;4.77;;;;;;;;;;5013967;28;20216;-26
2022/12/07 02:29:32;;;;;;;8.77;5.43;;;;;;;;;;4990674;28;20300;-27
2022/12/07 02:32:15;;;;;;;6.10;4.70;;;;;;;;;;5015052;28;20227;-26
2022/12/07 02:35:07;;;;;;;7.73;5.50;;;;;;;;;;5024733;28;20264;-26
2022/12/07 02:37:46;;;;;;;9.67;6.30;;;;;;;;;;5033409;28;20242;-25
2022/12/07 02:40:42;;;;;;;8.60;6.10;;;;;;;;;;5023733;28;20273;-26
2022/12/07 02:43:17;;;;;;;7.50;4.73;;;;;;;;;;5027879;28;20199;-27
2022/12/07 02:49:00;;;;;;;8.77;5.50;;;;;;;;;;5019602;28;20291;-26
2022/12/07 02:51:43;;;;;;;8.00;5.30;;;;;;;;;;5021978;28;20229;-25
2022/12/07 02:54:17;;;;;;;7.50;5.73;;;;;;;;;;5028610;28;20210;-25
2022/12/07 02:57:00;;;;;;;9.00;5.97;;;;;;;;;;5029195;28;20244;-27
2022/12/07 02:59:51;;;;;;;8.63;5.80;;;;;;;;;;5013023;28;20203;-27
2022/12/07 03:02:29;;;;;;;7.67;5.27;;;;;;;;;;5027798;28;20239;-24
2022/12/07 03:10:41;;;;;;;8.30;5.87;;;;;;;;;;5002691;28;20232;-33
2022/12/07 03:13:20;;;;;;;9.73;5.73;;;;;;;;;;4996494;28;20211;-37
2022/12/07 03:16:08;;;;;;;7.70;6.07;;;;;;;;;;5010080;28;20226;-32
2022/12/07 03:21:38;;;;;;;8.60;5.80;;;;;;;;;;5014889;28;20281;-34
2022/12/07 03:24:20;;;;;;;8.17;5.30;;;;;;;;;;5014166;28;20227;-29
2022/12/07 03:27:05;;;;;;;7.20;5.63;;;;;;;;;;5000016;28;20253;-33
2022/12/07 03:30:08;;;;;;;10.83;6.00;;;;;;;;;;5015863;28;20708;-31
2022/12/07 03:33:11;;;;;;;8.97;5.70;;;;;;;;;;5007160;28;20221;-31
2022/12/07 03:36:01;;;;;;;8.90;5.47;;;;;;;;;;5016016;28;20210;-31
2022/12/07 03:39:07;;;;;;;8.30;5.13;;;;;;;;;;5015751;28;20317;-30
2022/12/07 03:44:42;;;;;;;9.17;5.63;;;;;;;;;;5012913;28;20242;-31
2022/12/07 03:47:34;;;;;;;7.87;5.83;;;;;;;;;;5005699;28;20231;-33
2022/12/07 03:53:23;;;;;;;8.30;6.33;;;;;;;;;;4995564;28;20220;-36
2022/12/07 03:56:08;;;;;;;9.63;6.33;;;;;;;;;;5008808;28;20208;-36
2022/12/07 03:58:48;;;;;;;9.17;6.90;;;;;;;;;;5012068;28;20231;-34
2022/12/07 04:01:36;;;;;;;7.17;4.83;;;;;;;;;;5011736;28;20230;-33
2022/12/07 04:04:29;;;;;;;9.43;6.47;;;;;;;;;;5003924;28;20223;-32
2022/12/07 04:07:15;;;;;;;9.37;5.77;;;;;;;;;;4995750;28;20569;-36
2022/12/07 04:09:57;;;;;;;8.07;5.40;;;;;;;;;;4995219;28;20216;-34
2022/12/07 04:17:53;;;;;;;7.60;4.57;;;;;;;;;;5023795;28;20231;-32
2022/12/07 04:20:49;;;;;;;8.90;5.67;;;;;;;;;;5021925;28;20211;-32
2022/12/07 04:23:34;;;;;;;11.17;6.40;;;;;;;;;;5014975;28;20207;-31
2022/12/07 04:31:53;;;;;;;7.73;5.50;;;;;;;;;;4989965;28;20255;-32
2022/12/07 04:34:37;;;;;;;10.10;5.77;;;;;;;;;;4991583;28;20204;-33
2022/12/07 04:42:23;;;;;;;10.07;6.60;;;;;;;;;;5020613;28;20226;-28
2022/12/07 04:44:50;;;;;;;7.93;5.50;;;;;;;;;;5025646;28;20217;-26
2022/12/07 04:47:18;;;;;;;9.30;5.77;;;;;;;;;;5013859;28;20298;-28
2022/12/07 04:49:46;;;;;;;8.70;6.30;;;;;;;;;;5020588;28;20249;-26
2022/12/07 04:52:13;;;;;;;9.90;5.73;;;;;;;;;;5027618;28;20222;-25
2022/12/07 04:54:40;;;;;;;9.30;6.43;;;;;;;;;;5024903;28;20297;-30
2022/12/07 04:57:08;;;;;;;8.80;6.37;;;;;;;;;;5029676;28;20199;-28
2022/12/07 04:59:35;;;;;;;7.47;5.43;;;;;;;;;;5027689;28;20523;-28
2022/12/07 05:02:02;;;;;;;10.43;5.77;;;;;;;;;;5016040;28;20648;-25
2022/12/07 05:04:29;;;;;;;7.37;5.17;;;;;;;;;;5011247;28;20278;-26
2022/12/07 05:06:57;;;;;;;8.67;5.50;;;;;;;;;;5030439;28;20213;-26
2022/12/07 05:09:25;;;;;;;7.63;5.30;;;;;;;;;;5023484;28;20202;-26
2022/12/07 05:11:52;;;;;;;8.37;5.70;;;;;;;;;;5022473;28;20214;-26
2022/12/07 05:14:20;;;;;;;9.33;6.17;;;;;;;;;;5028974;28;20198;-28
2022/12/07 05:16:49;;;;;;;10.37;6.50;;;;;;;;;;5016316;28;20215;-25
2022/12/07 05:19:16;;;;;;;12.30;6.37;;;;;;;;;;5014090;28;20254;-26
2022/12/07 05:21:43;;;;;;;11.83;6.90;;;;;;;;;;5029626;28;20224;-27
2022/12/07 05:24:13;;;;;;;10.50;6.77;;;;;;;;;;5027460;28;20203;-27
2022/12/07 05:26:41;;;;;;;8.40;5.83;;;;;;;;;;5026900;28;20206;-29
2022/12/07 05:29:08;;;;;;;9.73;6.43;;;;;;;;;;5027518;28;20207;-29
2022/12/07 05:31:36;;;;;;;8.73;6.00;;;;;;;;;;5022099;28;20249;-28
2022/12/07 05:34:03;;;;;;;12.80;7.30;;;;;;;;;;5019974;28;20216;-25
2022/12/07 05:36:31;;;;;;;10.43;7.07;;;;;;;;;;5009131;28;20235;-26
2022/12/07 05:39:02;;;;;;;11.57;6.60;;;;;;;;;;5023019;28;20226;-24
2022/12/07 05:44:15;;;;;;;7.57;5.87;;;;;;;;;;5025766;28;20198;-28
2022/12/07 05:46:43;;;;;;;9.00;6.00;;;;;;;;;;5022258;28;20238;-27
2022/12/07 05:49:10;;;;;;;9.60;5.37;;;;;;;;;;5027221;28;20716;-27
2022/12/07 05:51:37;;;;;;;8.30;6.00;;;;;;;;;;5020936;28;20225;-24
2022/12/07 05:54:04;;;;;;;11.73;6.37;;;;;;;;;;5019466;28;20203;-25
2022/12/07 05:59:27;;;;;;;11.90;7.57;;;;;;;;;;5013235;28;20211;-26
2022/12/07 06:01:54;;;;;;;14.33;7.27;;;;;;;;;;5017240;28;20223;-26
2022/12/07 06:04:23;;;;;;;12.93;7.43;;;;;;;;;;5015915;28;20203;-25
2022/12/07 06:06:50;;;;;;;13.17;7.77;;;;;;;;;;5011543;28;20298;-27
2022/12/07 06:09:19;;;;;;;9.70;6.00;;;;;;;;;;5009084;28;20289;-30
2022/12/07 06:14:34;;;;;;;12.83;7.57;;;;;;;;;;5020945;28;20259;-29
2022/12/07 06:17:01;;;;;;;9.53;5.63;;;;;;;;;;5010344;28;20211;-29
2022/12/07 06:19:28;;;;;;;11.67;6.60;;;;;;;;;;5008825;28;20226;-28
2022/12/07 06:21:56;;;;;;;9.73;6.37;;;;;;;;;;5010469;28;20628;-28
2022/12/07 06:24:23;;;;;;;8.33;6.00;;;;;;;;;;5007124;28;20203;-30
2022/12/07 06:26:51;;;;;;;9.37;5.60;;;;;;;;;;5012569;28;20199;-29
2022/12/07 06:29:18;;;;;;;9.63;6.10;;;;;;;;;;5014669;28;20291;-28
2022/12/07 06:31:47;;;;;;;9.83;6.50;;;;;;;;;;5013673;28;20230;-28
2022/12/07 06:34:15;;;;;;;9.23;6.03;;;;;;;;;;5015619;28;20211;-28
2022/12/07 06:36:42;;;;;;;13.13;7.47;;;;;;;;;;5010934;28;20294;-29
2022/12/07 06:39:10;;;;;;;15.20;8.13;;;;;;;;;;5013063;28;20451;-28
2022/12/07 06:41:37;;;;;;;10.33;6.33;;;;;;;;;;5022802;28;20230;-27
2022/12/07 06:44:04;;;;;;;10.10;6.87;;;;;;;;;;5031457;28;20206;-28
2022/12/07 06:46:32;;;;;;;10.67;7.33;;;;;;;;;;5029681;28;20206;-29
2022/12/07 06:49:00;;;;;;;10.27;6.10;;;;;;;;;;5017452;28;20199;-28
2022/12/07 06:51:27;;;;;;;14.03;5.97;;;;;;;;;;5032561;28;20234;-27
2022/12/07 06:53:54;;;;;;;10.43;6.70;;;;;;;;;;5027450;28;20216;-30
2022/12/07 06:56:22;;;;;;;13.30;6.00;;;;;;;;;;5020075;28;20210;-29
2022/12/07 06:58:49;;;;;;;7.63;5.67;;;;;;;;;;5017225;28;20305;-30
2022/12/07 07:01:18;;;;;;;8.77;6.77;;;;;;;;;;5023926;28;20227;-29
2022/12/07 07:03:46;;;;;;;9.77;6.10;;;;;;;;;;5025760;28;20203;-28
2022/12/07 07:06:15;;;;;;;10.73;6.53;;;;;;;;;;5014804;28;20287;-29
2022/12/07 07:08:42;;;;;;;9.97;5.77;;;;;;;;;;5014392;28;20199;-29
2022/12/07 07:11:10;;;;;;;8.30;5.80;;;;;;;;;;5021942;28;20235;-28
2022/12/07 07:13:37;;;;;;;8.33;5.60;;;;;;;;;;5012711;28;20214;-27
2022/12/07 07:16:04;;;;;;;11.10;7.20;;;;;;;;;;5022001;28;20612;-26
2022/12/07 07:18:31;;;;;;;10.93;6.10;;;;;;;;;;5025530;28;20237;-29
2022/12/07 07:20:58;;;;;;;9.47;5.90;;;;;;;;;;5032461;28;20252;-28
2022/12/07 07:23:27;;;;;;;9.10;5.97;;;;;;;;;;5034387;28;20207;-26
2022/12/07 07:25:54;;;;;;;9.27;5.83;;;;;;;;;;5027139;28;20235;-28
2022/12/07 07:28:22;;;;;;;11.53;7.37;;;;;;;;;;5023541;28;20226;-29
2022/12/07 07:30:49;;;;;;;11.47;6.77;;;;;;;;;;5022353;28;20226;-27
2022/12/07 07:33:16;;;;;;;9.43;6.67;;;;;;;;;;5030473;28;20302;-26
2022/12/07 07:35:43;;;;;;;9.10;5.87;;;;;;;;;;5022908;28;20199;-28
2022/12/07 07:38:10;;;;;;;10.07;6.40;;;;;;;;;;5015046;28;20241;-28
2022/12/07 07:40:39;;;;;;;8.07;5.40;;;;;;;;;;5022552;28;20238;-29
2022/12/07 07:43:06;;;;;;;9.50;5.67;;;;;;;;;;5028539;28;20235;-26
2022/12/07 07:45:33;;;;;;;9.07;6.27;;;;;;;;;;5026025;28;20206;-28
2022/12/07 07:48:20;;;;;;;8.43;6.20;;;;;;;;;;5025993;28;20210;-27
2022/12/07 07:50:47;;;;;;;10.73;6.07;;;;;;;;;;5035605;28;20318;-28
2022/12/07 07:53:14;;;;;;;9.83;6.33;;;;;;;;;;5034218;28;20217;-26
2022/12/07 07:55:42;;;;;;;8.90;6.77;;;;;;;;;;5014768;28;20229;-27
2022/12/07 07:58:10;;;;;;;8.80;5.73;;;;;;;;;;5029536;28;20690;-26
2022/12/07 08:00:37;;;;;;;7.80;5.63;;;;;;;;;;5027103;28;20227;-26
2022/12/07 08:03:04;;;;;;;8.40;5.10;;;;;;;;;;5027765;28;20301;-27
2022/12/07 08:05:31;;;;;;;7.20;5.57;;;;;;;;;;5024770;28;20203;-27
2022/12/07 08:07:59;;;;;;;7.73;5.63;;;;;;;;;;5014784;28;20286;-28
2022/12/07 08:10:26;;;;;;;6.70;5.20;;;;;;;;;;5015263;28;20227;-27
2022/12/07 08:13:13;;;;;;;8.90;5.47;;;;;;;;;;5018252;28;20212;-28
2022/12/07 08:15:41;;;;;;;11.80;6.17;;;;;;;;;;5024992;28;20199;-26
2022/12/07 08:18:09;;;;;;;10.00;6.53;;;;;;;;;;5013798;28;20233;-27
2022/12/07 08:20:37;;;;;;;10.77;6.60;;;;;;;;;;5023751;28;20314;-28
2022/12/07 08:23:04;;;;;;;8.57;5.93;;;;;;;;;;5029256;28;21206;-29
2022/12/07 08:25:33;;;;;;;10.47;6.90;;;;;;;;;;5017922;28;20222;-28
2022/12/07 08:28:01;;;;;;;11.17;7.17;;;;;;;;;;5014275;28;20203;-25
2022/12/07 08:30:28;;;;;;;10.87;6.97;;;;;;;;;;5015093;28;20222;-29
2022/12/07 08:32:57;;;;;;;8.77;5.97;;;;;;;;;;5020467;28;20258;-29
2022/12/07 08:35:24;;;;;;;9.53;6.63;;;;;;;;;;5013572;28;20290;-28
2022/12/07 08:37:51;;;;;;;10.27;6.33;;;;;;;;;;5014153;28;20205;-27
2022/12/07 08:40:18;;;;;;;10.53;6.53;;;;;;;;;;5027278;28;20237;-26
2022/12/07 08:42:47;;;;;;;11.50;6.37;;;;;;;;;;5016734;28;20696;-28
2022/12/07 08:45:16;;;;;;;9.47;6.07;;;;;;;;;;5024239;28;20215;-28
2022/12/07 08:47:46;;;;;;;11.13;7.17;;;;;;;;;;5026927;28;20216;-28
2022/12/07 08:50:14;;;;;;;10.20;6.50;;;;;;;;;;5032260;28;20202;-28
2022/12/07 08:52:41;;;;;;;10.13;6.43;;;;;;;;;;5033142;28;20288;-26
2022/12/07 08:55:11;;;;;;;9.33;6.17;;;;;;;;;;5009611;28;20207;-27
2022/12/07 08:57:38;;;;;;;10.37;6.30;;;;;;;;;;5012454;28;20214;-27
2022/12/07 09:00:07;;;;;;;7.90;5.47;;;;;;;;;;5011675;28;20280;-26
2022/12/07 09:02:35;;;;;;;8.90;6.70;;;;;;;;;;5018703;28;20223;-25
2022/12/07 09:05:02;;;;;;;9.50;5.37;;;;;;;;;;5019540;28;20211;-28
2022/12/07 09:07:32;;;;;;;9.07;5.53;;;;;;;;;;5033473;28;20310;-28
2022/12/07 09:09:59;;;;;;;9.43;6.13;;;;;;;;;;5028230;28;20207;-29
2022/12/07 09:12:26;;;;;;;10.23;6.10;;;;;;;;;;5027808;28;20231;-26
2022/12/07 09:14:53;;;;;;;7.67;5.50;;;;;;;;;;5022870;28;20203;-29
2022/12/07 09:17:20;;;;;;;6.73;4.77;;;;;;;;;;5014758;28;20213;-29
2022/12/07 09:19:49;;;;;;;7.40;5.27;;;;;;;;;;5015570;28;20226;-28
2022/12/07 09:22:16;;;;;;;6.90;4.97;;;;;;;;;;5032813;28;20230;-31
2022/12/07 09:24:45;;;;;;;7.07;4.93;;;;;;;;;;5028535;28;20199;-29
2022/12/07 09:27:12;;;;;;;6.80;5.00;;;;;;;;;;5022315;28;20293;-25
2022/12/07 09:29:39;;;;;;;6.07;4.50;;;;;;;;;;5024277;28;20734;-27
2022/12/07 09:32:07;;;;;;;8.53;4.60;;;;;;;;;;5021723;28;20232;-26
2022/12/07 09:34:34;;;;;;;7.70;4.60;;;;;;;;;;5012470;28;20203;-27
2022/12/07 09:37:03;;;;;;;6.80;4.70;;;;;;;;;;5012933;28;20298;-28
2022/12/07 09:39:31;;;;;;;6.93;4.80;;;;;;;;;;5019571;28;20223;-29
2022/12/07 09:41:59;;;;;;;6.27;4.80;;;;;;;;;;5027777;28;20227;-29
2022/12/07 09:44:28;;;;;;;7.93;4.90;;;;;;;;;;5022182;28;20213;-27
2022/12/07 09:46:56;;;;;;;5.67;4.13;;;;;;;;;;5020787;28;20202;-26
2022/12/07 09:49:42;;;;;;;6.80;5.00;;;;;;;;;;5023826;28;20200;-27
2022/12/07 09:52:20;;;;;;;8.07;4.73;;;;;;;;;;5013334;28;20314;-29
2022/12/07 09:54:48;;;;;;;6.23;4.53;;;;;;;;;;5010132;28;20206;-27
2022/12/07 09:57:16;;;;;;;7.30;4.70;;;;;;;;;;5017560;28;20210;-27
2022/12/07 09:59:43;;;;;;;8.03;5.03;;;;;;;;;;5010928;28;20223;-27
2022/12/07 10:02:25;;;;;;;6.07;4.27;;;;;;;;;;5018259;28;20610;-29
2022/12/07 10:04:54;;;;;;;5.10;4.33;;;;;;;;;;5021336;28;20665;-27
2022/12/07 10:07:23;;;;;;;7.57;4.87;;;;;;;;;;5032798;28;20199;-27
2022/12/07 10:09:50;;;;;;;6.87;4.87;;;;;;;;;;5030341;28;20286;-27
2022/12/07 10:12:17;;;;;;;6.80;4.47;;;;;;;;;;5028853;28;20317;-29
2022/12/07 10:14:55;;;;;;;7.20;5.07;;;;;;;;;;5019818;28;20198;-27
2022/12/07 10:17:33;;;;;;;8.43;5.67;;;;;;;;;;5020497;28;20297;-27
2022/12/07 10:20:14;;;;;;;8.33;5.20;;;;;;;;;;5015885;28;20222;-26
2022/12/07 10:22:55;;;;;;;8.20;5.20;;;;;;;;;;5016712;28;20198;-29
2022/12/07 10:25:23;;;;;;;6.73;5.03;;;;;;;;;;5019769;28;20208;-28
2022/12/07 10:27:59;;;;;;;6.77;4.97;;;;;;;;;;5024052;28;20637;-28
2022/12/07 10:30:26;;;;;;;6.20;4.67;;;;;;;;;;5018662;28;20222;-27
2022/12/07 10:32:53;;;;;;;5.73;4.53;;;;;;;;;;5020649;28;20203;-29
2022/12/07 10:35:23;;;;;;;5.47;4.47;;;;;;;;;;5015049;28;20217;-28
2022/12/07 10:37:52;;;;;;;8.27;5.23;;;;;;;;;;5027709;28;20198;-27
2022/12/07 10:40:30;;;;;;;6.37;4.60;;;;;;;;;;5027333;28;20219;-29
2022/12/07 10:43:05;;;;;;;5.67;4.37;;;;;;;;;;5023698;28;20202;-27
2022/12/07 10:45:32;;;;;;;6.13;4.03;;;;;;;;;;5017087;28;20213;-28
2022/12/07 10:48:02;;;;;;;6.30;4.50;;;;;;;;;;5018591;28;20302;-29
2022/12/07 10:50:34;;;;;;;6.83;4.50;;;;;;;;;;5028505;28;20234;-27
2022/12/07 10:53:11;;;;;;;5.37;3.60;;;;;;;;;;5034298;28;20209;-26
2022/12/07 10:55:47;;;;;;;6.53;4.50;;;;;;;;;;5035379;28;20202;-28
2022/12/07 10:58:23;;;;;;;5.30;3.90;;;;;;;;;;5027968;28;20203;-27
2022/12/07 11:00:58;;;;;;;5.70;4.00;;;;;;;;;;5025990;28;20716;-27
2022/12/07 11:03:32;;;;;;;5.67;4.20;;;;;;;;;;5026377;28;20201;-28
2022/12/07 11:06:06;;;;;;;7.23;4.27;;;;;;;;;;5015056;28;20207;-27
2022/12/07 11:08:41;;;;;;;6.73;4.40;;;;;;;;;;5034610;28;20203;-27
2022/12/07 11:11:11;;;;;;;5.80;4.40;;;;;;;;;;5020291;28;20227;-26
2022/12/07 11:13:42;;;;;;;5.53;3.87;;;;;;;;;;5024993;28;20218;-30
2022/12/07 11:16:15;;;;;;;10.73;4.73;;;;;;;;;;5019889;28;20214;-28
2022/12/07 11:18:46;;;;;;;7.37;4.43;;;;;;;;;;5018339;28;20210;-29
2022/12/07 11:21:18;;;;;;;5.50;4.37;;;;;;;;;;5029632;28;20309;-28
2022/12/07 11:23:50;;;;;;;5.33;4.03;;;;;;;;;;5032567;28;20198;-26
2022/12/07 11:28:56;;;;;;;5.67;4.00;;;;;;;;;;5023648;28;20634;-36
2022/12/07 11:31:29;;;;;;;5.63;4.23;;;;;;;;;;5026021;28;20222;-36
2022/12/07 11:34:17;;;;;;;7.30;4.67;;;;;;;;;;5034217;28;20202;-31
2022/12/07 11:36:57;;;;;;;6.07;4.10;;;;;;;;;;5034879;28;20261;-39
2022/12/07 11:39:32;;;;;;;5.30;4.37;;;;;;;;;;5029460;28;20234;-35
2022/12/07 11:42:06;;;;;;;6.47;4.23;;;;;;;;;;5026748;28;20226;-32
2022/12/07 11:44:37;;;;;;;6.70;4.50;;;;;;;;;;5024117;28;20301;-32
2022/12/07 11:47:11;;;;;;;7.93;4.17;;;;;;;;;;5026893;28;20211;-31
2022/12/07 11:49:48;;;;;;;5.97;4.07;;;;;;;;;;5032514;28;20226;-36
2022/12/07 11:52:21;;;;;;;5.33;4.10;;;;;;;;;;5018261;28;20250;-30
2022/12/07 11:54:55;;;;;;;7.77;4.83;;;;;;;;;;5021155;28;20240;-31
2022/12/07 11:57:28;;;;;;;5.03;3.70;;;;;;;;;;5033261;28;20297;-34
2022/12/07 12:00:00;;;;;;;7.13;4.40;;;;;;;;;;5025882;28;20215;-34
2022/12/07 12:02:30;;;;;;;5.63;4.20;;;;;;;;;;5027131;28;20223;-32
2022/12/07 12:05:06;;;;;;;6.17;4.20;;;;;;;;;;5034330;28;20211;-30
2022/12/07 12:07:45;;;;;;;5.87;3.43;;;;;;;;;;5031091;28;20203;-31
2022/12/07 12:10:25;;;;;;;5.33;4.20;;;;;;;;;;5024086;28;20249;-36
2022/12/07 12:13:02;;;;;;;7.03;4.93;;;;;;;;;;5027336;28;20203;-34
2022/12/07 12:15:40;;;;;;;5.43;4.10;;;;;;;;;;5015372;28;20258;-35
2022/12/07 12:18:25;;;;;;;6.53;4.17;;;;;;;;;;5034855;28;20214;-35
2022/12/07 12:21:00;;;;;;;6.60;4.10;;;;;;;;;;5028345;28;20261;-38
2022/12/07 12:23:37;;;;;;;5.30;4.03;;;;;;;;;;5031349;28;20206;-36
2022/12/07 12:26:08;;;;;;;5.90;4.20;;;;;;;;;;5024411;28;20214;-32
2022/12/07 12:28:42;;;;;;;5.03;3.87;;;;;;;;;;5020823;28;20223;-35
2022/12/07 12:31:14;;;;;;;4.80;3.83;;;;;;;;;;5029192;28;20250;-35
2022/12/07 12:33:47;;;;;;;5.70;4.30;;;;;;;;;;5023287;28;20215;-34
2022/12/07 12:36:28;;;;;;;7.67;4.30;;;;;;;;;;5028559;28;20302;-35
2022/12/07 12:39:20;;;;;;;6.67;3.90;;;;;;;;;;5014846;28;20576;-31
2022/12/07 12:42:12;;;;;;;7.00;4.03;;;;;;;;;;5017562;28;20227;-35
2022/12/07 12:45:05;;;;;;;5.43;3.57;;;;;;;;;;5021657;28;20207;-34
2022/12/07 12:47:51;;;;;;;4.90;3.70;;;;;;;;;;5031864;28;20202;-35
2022/12/07 12:50:28;;;;;;;5.50;4.00;;;;;;;;;;5032560;28;20207;-36
2022/12/07 12:53:34;;;;;;;4.47;3.47;;;;;;;;;;5032031;28;20289;-36
2022/12/07 12:56:15;;;;;;;4.00;3.10;;;;;;;;;;5022266;28;20260;-35
2022/12/07 12:58:48;;;;;;;4.47;3.87;;;;;;;;;;5023107;28;20222;-35
2022/12/07 13:01:48;;;;;;;6.27;3.80;;;;;;;;;;5018134;28;20321;-30
2022/12/07 13:04:34;;;;;;;7.60;4.23;;;;;;;;;;5020011;28;20199;-35
2022/12/07 13:07:01;;;;;;;5.03;3.90;;;;;;;;;;5032128;28;20206;-35
2022/12/07 13:09:31;;;;;;;4.63;3.50;;;;;;;;;;5024447;28;20202;-34
2022/12/07 13:12:00;;;;;;;6.97;3.80;;;;;;;;;;5011559;28;20227;-34
2022/12/07 13:14:52;;;;;;;4.50;3.13;;;;;;;;;;5011787;28;20206;-33
2022/12/07 13:17:34;;;;;;;3.97;3.00;;;;;;;;;;5019284;28;20266;-29
2022/12/07 13:20:02;;;;;;;6.40;3.50;;;;;;;;;;5028161;28;20312;-29
2022/12/07 13:22:38;;;;;;;4.20;3.27;;;;;;;;;;5031198;28;20504;-36
2022/12/07 13:25:08;;;;;;;4.33;3.20;;;;;;;;;;5024310;28;20207;-33
2022/12/07 13:27:36;;;;;;;6.53;2.73;;;;;;;;;;5027274;28;20246;-36
2022/12/07 13:30:09;;;;;;;6.47;3.77;;;;;;;;;;5010696;28;20203;-32
2022/12/07 13:32:37;;;;;;;6.93;3.60;;;;;;;;;;5023319;28;20203;-32
2022/12/07 13:35:19;;;;;;;8.50;3.50;;;;;;;;;;5030846;28;20297;-36
2022/12/07 13:37:46;;;;;;;4.67;3.27;;;;;;;;;;5031112;28;20884;-33
2022/12/07 13:40:18;;;;;;;9.47;3.43;;;;;;;;;;5025447;28;20219;-33
2022/12/07 13:42:46;;;;;;;5.37;3.67;;;;;;;;;;5024049;28;20245;-34
2022/12/07 13:45:47;;;;;;;3.97;3.43;;;;;;;;;;5024912;28;20214;-33
2022/12/07 13:48:12;;;;;;;5.07;3.67;;;;;;;;;;5020550;28;20220;-35
2022/12/07 13:50:39;;;;;;;4.17;3.43;;;;;;;;;;5033302;28;20222;-33
2022/12/07 13:53:13;;;;;;;4.70;3.70;;;;;;;;;;5031971;28;20688;-34
2022/12/07 13:55:46;;;;;;;6.17;3.70;;;;;;;;;;5013805;28;20257;-36
2022/12/07 13:58:16;;;;;;;4.27;3.60;;;;;;;;;;5029824;28;20683;-34
2022/12/07 14:00:45;;;;;;;6.17;3.87;;;;;;;;;;5023788;28;20234;-29
2022/12/07 14:03:29;;;;;;;6.03;3.93;;;;;;;;;;5028363;28;20217;-34
2022/12/07 14:06:15;;;;;;;5.00;3.50;;;;;;;;;;5029815;28;20210;-36
2022/12/07 14:08:42;;;;;;;4.70;3.70;;;;;;;;;;5029876;28;20226;-35
2022/12/07 14:11:11;;;;;;;5.60;3.77;;;;;;;;;;5019610;28;20234;-34
2022/12/07 14:13:40;;;;;;;5.23;3.80;;;;;;;;;;5027132;28;20297;-37
2022/12/07 14:16:19;;;;;;;4.90;3.80;;;;;;;;;;5015939;28;20211;-38
2022/12/07 14:18:46;;;;;;;5.80;4.30;;;;;;;;;;5029137;28;20216;-33
2022/12/07 14:21:17;;;;;;;7.40;4.23;;;;;;;;;;5022700;28;20313;-37
2022/12/07 14:23:44;;;;;;;7.97;4.60;;;;;;;;;;5011158;28;20242;-34
2022/12/07 14:26:13;;;;;;;12.27;4.33;;;;;;;;;;5019568;28;20225;-39
2022/12/07 14:28:42;;;;;;;7.63;4.20;;;;;;;;;;5019117;28;20293;-35
2022/12/07 14:31:12;;;;;;;6.73;4.23;;;;;;;;;;5017534;28;20659;-35
2022/12/07 14:33:41;;;;;;;6.13;4.23;;;;;;;;;;5022549;28;20266;-32
2022/12/07 14:36:10;;;;;;;5.97;4.27;;;;;;;;;;5023811;28;20203;-29
2022/12/07 14:38:37;;;;;;;7.80;4.30;;;;;;;;;;5024965;28;20714;-32
2022/12/07 14:43:50;;;;;;;5.53;3.83;;;;;;;;;;5018309;28;20202;-33
2022/12/07 14:46:17;;;;;;;5.17;3.90;;;;;;;;;;5018825;28;20238;-36
2022/12/07 14:48:45;;;;;;;5.20;3.70;;;;;;;;;;5026220;28;20207;-35
2022/12/07 14:51:14;;;;;;;5.13;3.97;;;;;;;;;;5030721;28;20303;-32
2022/12/07 14:53:42;;;;;;;5.50;4.07;;;;;;;;;;5025724;28;20208;-35
2022/12/07 14:56:09;;;;;;;6.03;4.03;;;;;;;;;;5015814;28;20226;-28
2022/12/07 14:58:36;;;;;;;3.50;3.20;;;;;;;;;;5021651;28;20681;-32
2022/12/07 15:01:04;;;;;;;5.40;3.50;;;;;;;;;;5016193;28;20318;-33
2022/12/07 15:03:31;;;;;;;6.83;4.30;;;;;;;;;;5027782;28;20206;-33
2022/12/07 15:05:59;;;;;;;6.00;4.23;;;;;;;;;;5025093;28;20203;-34
2022/12/07 15:08:27;;;;;;;6.13;4.30;;;;;;;;;;5029916;28;20216;-33
2022/12/07 15:10:54;;;;;;;7.53;3.83;;;;;;;;;;5024596;28;20310;-36
2022/12/07 15:16:06;;;;;;;7.33;4.20;;;;;;;;;;5018470;28;20209;-32
2022/12/07 15:18:33;;;;;;;5.57;4.37;;;;;;;;;;5032702;28;20210;-31
2022/12/07 15:21:02;;;;;;;6.73;4.03;;;;;;;;;;5017762;28;20248;-35
2022/12/07 15:23:29;;;;;;;9.33;3.50;;;;;;;;;;5028474;28;20223;-31
2022/12/07 15:25:56;;;;;;;6.10;3.87;;;;;;;;;;5013969;28;20200;-34
2022/12/07 15:28:23;;;;;;;5.43;3.83;;;;;;;;;;5012492;28;20217;-34
2022/12/07 15:30:51;;;;;;;5.80;4.17;;;;;;;;;;5015063;28;20219;-35
2022/12/07 15:33:18;;;;;;;7.63;4.40;;;;;;;;;;5023891;28;20293;-34
2022/12/07 15:35:46;;;;;;;6.33;4.37;;;;;;;;;;5023791;28;20325;-34
2022/12/07 15:38:14;;;;;;;6.10;3.90;;;;;;;;;;5032337;28;20210;-31
2022/12/07 15:40:41;;;;;;;5.40;3.87;;;;;;;;;;5018663;28;20551;-30
2022/12/07 15:45:03;;;;;;;6.30;4.53;;;;;;;;;;5013818;28;20203;-33
2022/12/07 15:45:57;;;;;;;7.90;4.53;;;;;;;;;;5018989;28;20207;-32
2022/12/07 15:48:24;;;;;;;7.67;4.60;;;;;;;;;;5027618;28;20210;-35
2022/12/07 15:50:51;;;;;;;9.67;4.23;;;;;;;;;;5021873;28;20218;-35
2022/12/07 15:53:20;;;;;;;7.33;4.40;;;;;;;;;;5030926;28;20213;-31
2022/12/07 15:55:47;;;;;;;7.00;4.90;;;;;;;;;;5020450;28;20477;-35
2022/12/07 15:58:14;;;;;;;7.10;4.87;;;;;;;;;;5018161;28;20207;-30
2022/12/07 16:00:41;;;;;;;5.93;4.27;;;;;;;;;;5018679;28;20685;-38
2022/12/07 16:03:08;;;;;;;5.40;3.87;;;;;;;;;;5015584;28;20207;-34
2022/12/07 16:05:35;;;;;;;9.57;4.73;;;;;;;;;;5010960;28;20590;-34
2022/12/07 16:08:03;;;;;;;8.53;5.10;;;;;;;;;;5011873;28;20203;-36
2022/12/07 16:10:31;;;;;;;5.97;4.63;;;;;;;;;;5018396;28;20226;-36
2022/12/07 16:12:58;;;;;;;10.73;5.03;;;;;;;;;;5024681;28;20476;-31
2022/12/07 16:15:26;;;;;;;7.87;5.00;;;;;;;;;;5023866;28;20208;-32
2022/12/07 16:17:55;;;;;;;7.23;4.50;;;;;;;;;;5018965;28;20406;-34
2022/12/07 16:20:22;;;;;;;7.77;4.87;;;;;;;;;;5018825;28;20289;-33
2022/12/07 16:22:52;;;;;;;6.60;5.23;;;;;;;;;;5027998;28;20230;-32
2022/12/07 16:25:19;;;;;;;7.37;5.40;;;;;;;;;;5016055;28;20215;-29
2022/12/07 16:27:48;;;;;;;6.83;4.97;;;;;;;;;;5025257;28;20218;-35
2022/12/07 16:30:15;;;;;;;7.00;4.60;;;;;;;;;;5026076;28;20282;-36
2022/12/07 16:32:43;;;;;;;6.77;4.70;;;;;;;;;;5028881;28;20207;-30